GSVT2: Red River, Gainesville, TX

Data processed at Sun Apr 30 2017 22:31


All information presented herein is the property of the government of the United States of America and may be revised or deleted at any time without prior notice.
Dissemination of this information without the expressed written consent of the Public Affairs Office, Tulsa District U.S. Army Corps of Engineers is strictly prohibited.
These data are gathered electronically and, as presented, have not undergone any form of quality control. These data are not guaranteed to be valid or correct.
Go to home page.
Go to station list.
Go to station map.

Upstream stations:

Downstream station:
Previous Day
Next Day
Current Day
    
SHEF ID:       GSVT2     Red River near Gainesville, TX
STATION TYPE:  

               PRECIP     STAGE  RIV-FLOW  BAT-LOAD
                   in        ft       cfs      volt
              Ccp-Rev   Ccp-Rev   Ccp-Rev   Ccp-Rev
(US/Central)
04/30 00:00      0.00      7.98      2534     12.65
04/30 01:00      0.00      8.00      2560     12.65
04/30 02:00      0.00      7.96      2508     12.65
04/30 03:00      0.00      7.94      2482     12.65
04/30 04:00      0.00      7.90      ----     12.65
04/30 05:00      0.00      7.92      ----     12.57
04/30 06:00      0.00     49.08      ----     12.57
04/30 07:00      0.00      7.91      ----     12.57
04/30 08:00      0.00      7.88      ----     12.57
04/30 09:00      0.00      7.89      ----     13.21
04/30 10:00      0.00      7.75      ----     13.44
04/30 11:00      0.00      7.77      ----     13.76
04/30 12:00      0.00      7.69      2177     13.37
04/30 13:00      0.00      7.60      2077     14.16
04/30 14:00      0.00      7.61      2090     13.29
04/30 15:00      0.00      7.67      2165     13.29
04/30 16:00      0.00      7.57      2039     13.21
04/30 17:00      0.00      7.54      2001     13.21
04/30 18:00      0.00      7.56      2027     13.21
04/30 19:00      0.00      7.56      2027     13.13
04/30 20:00      0.00      7.55      2014     13.13
04/30 21:00      0.00      7.65      2140     12.81
04/30 22:00      0.00      7.71      2202     12.65
04/30 23:00      ----      ----      ----      ----